Time;durP1;ratioP1;P1;durP2;ratioP2;P2;SDS_P1;SDS_P2;PMS_P1;PMS_P2;Temp;Humidity;BMP_temperature;BMP_pressure;BME280_temperature;BME280_humidity;BME280_pressure;Samples;Min_cycle;Max_cycle;Signal;HPM_P1;HPM_P2
2022/04/01 00:01:48;;;;;;;27.33;16.55;;;1.20;99.90;;;;;;5093940;28;20055;-71
2022/04/01 00:04:14;;;;;;;25.58;15.85;;;1.20;99.90;;;;;;5095295;28;20022;-71
2022/04/01 00:06:40;;;;;;;22.48;14.02;;;1.20;99.90;;;;;;5077117;28;20072;-70
2022/04/01 00:09:05;;;;;;;21.23;13.25;;;1.20;99.90;;;;;;5093944;28;20107;-71
2022/04/01 00:11:31;;;;;;;22.73;13.38;;;1.20;99.90;;;;;;5095175;28;20024;-71
2022/04/01 00:13:57;;;;;;;20.52;13.45;;;1.20;99.90;;;;;;5095089;28;20032;-71
2022/04/01 00:16:22;;;;;;;22.27;13.60;;;1.20;99.90;;;;;;5095042;28;20440;-71
2022/04/01 00:18:48;;;;;;;19.75;13.35;;;1.20;99.90;;;;;;5095018;28;20490;-71
2022/04/01 00:21:13;;;;;;;19.30;13.55;;;1.20;99.90;;;;;;5093638;28;20094;-72
2022/04/01 00:23:39;;;;;;;22.23;14.13;;;1.20;99.90;;;;;;5093758;28;20504;-71
2022/04/01 00:26:04;;;;;;;27.15;13.60;;;1.20;99.90;;;;;;5093861;28;20109;-71
2022/04/01 00:28:30;;;;;;;22.15;13.15;;;1.20;99.90;;;;;;5094879;28;20030;-71
2022/04/01 00:30:55;;;;;;;17.42;12.85;;;1.20;99.90;;;;;;5094744;28;20050;-71
2022/04/01 00:33:21;;;;;;;21.48;13.40;;;1.20;99.90;;;;;;5094804;28;20016;-72
2022/04/01 00:35:47;;;;;;;21.83;13.80;;;1.20;99.90;;;;;;5094821;28;20020;-72
2022/04/01 00:38:13;;;;;;;18.80;13.13;;;1.20;99.90;;;;;;5093471;28;20062;-72
2022/04/01 00:40:39;;;;;;;22.67;13.88;;;1.20;99.90;;;;;;5094595;28;20031;-70
2022/04/01 00:43:05;;;;;;;21.45;13.50;;;1.20;99.90;;;;;;5076446;28;20032;-71
2022/04/01 00:45:31;;;;;;;19.08;13.85;;;1.20;99.90;;;;;;5093354;28;20056;-71
2022/04/01 00:48:01;;;;;;;20.55;13.35;;;1.20;99.90;;;;;;5094483;28;20020;-71
2022/04/01 00:50:28;;;;;;;19.33;13.23;;;1.20;99.90;;;;;;5094651;28;20024;-72
2022/04/01 00:52:54;;;;;;;22.90;13.93;;;1.20;99.90;;;;;;5094456;28;20024;-72
2022/04/01 00:55:20;;;;;;;22.65;13.98;;;1.10;99.90;;;;;;5094527;28;20035;-71
2022/04/01 00:57:46;;;;;;;20.00;12.07;;;1.10;99.90;;;;;;5094432;28;20482;-72
2022/04/01 01:00:13;;;;;;;20.42;12.73;;;1.10;99.90;;;;;;5093143;28;20028;-71
2022/04/01 01:02:39;;;;;;;17.83;12.00;;;1.10;99.90;;;;;;5094019;28;20071;-72
2022/04/01 01:05:05;;;;;;;19.85;11.45;;;1.10;99.90;;;;;;5094219;28;20020;-72
2022/04/01 01:07:31;;;;;;;15.55;10.90;;;1.10;99.90;;;;;;5093085;28;20481;-71
2022/04/01 01:09:57;;;;;;;15.52;11.18;;;1.20;99.90;;;;;;5094151;28;20023;-72
2022/04/01 01:12:25;;;;;;;14.68;10.35;;;1.20;99.90;;;;;;5093028;28;20480;-71
2022/04/01 01:14:50;;;;;;;13.43;9.98;;;1.10;99.90;;;;;;5093089;28;20020;-72
2022/04/01 01:17:16;;;;;;;13.00;9.18;;;1.10;99.90;;;;;;5094138;28;20038;-72
2022/04/01 01:19:45;;;;;;;15.90;9.57;;;1.20;99.90;;;;;;5093180;28;20436;-73
2022/04/01 01:22:13;;;;;;;13.07;9.93;;;1.10;99.90;;;;;;5092822;28;20092;-73
2022/04/01 01:24:41;;;;;;;16.23;9.77;;;1.10;99.90;;;;;;5094102;28;20076;-72
2022/04/01 01:27:09;;;;;;;14.02;9.77;;;1.00;99.90;;;;;;5092781;28;20024;-72
2022/04/01 01:29:38;;;;;;;16.45;9.85;;;1.00;99.90;;;;;;5093803;28;20016;-72
2022/04/01 01:32:05;;;;;;;12.65;9.30;;;1.00;99.90;;;;;;5109683;28;20028;-71
2022/04/01 01:34:32;;;;;;;12.35;9.38;;;0.90;99.90;;;;;;5092712;28;20081;-72
2022/04/01 01:36:58;;;;;;;13.35;9.02;;;1.00;99.90;;;;;;5093459;28;20107;-72
2022/04/01 01:39:24;;;;;;;14.45;9.23;;;0.90;99.90;;;;;;5092499;28;20062;-71
2022/04/01 01:41:50;;;;;;;13.73;9.52;;;1.00;99.90;;;;;;5093637;28;20055;-72
2022/04/01 01:44:17;;;;;;;18.63;10.15;;;0.90;99.90;;;;;;5109200;28;20026;-72
2022/04/01 01:46:43;;;;;;;14.88;10.50;;;0.90;99.90;;;;;;5075403;28;20024;-71
2022/04/01 01:49:08;;;;;;;14.13;10.05;;;1.00;99.90;;;;;;5092403;28;20114;-72
2022/04/01 01:54:52;;;;;;;16.38;10.43;;;0.90;99.90;;;;;;5093276;28;20542;-71
2022/04/01 01:57:06;;;;;;;16.60;10.82;;;0.90;99.90;;;;;;5093270;28;20066;-72
2022/04/01 01:59:32;;;;;;;16.13;10.55;;;0.90;99.90;;;;;;5092340;28;20496;-72
2022/04/01 02:01:58;;;;;;;15.50;10.68;;;0.90;99.90;;;;;;5092040;28;20041;-72
2022/04/01 02:04:24;;;;;;;14.55;10.10;;;0.90;99.90;;;;;;5092237;28;20024;-72
2022/04/01 02:06:50;;;;;;;14.13;10.57;;;0.90;99.90;;;;;;5093432;28;20017;-71
2022/04/01 02:09:17;;;;;;;15.43;10.27;;;0.90;99.90;;;;;;5093260;28;20035;-72
2022/04/01 02:11:43;;;;;;;16.20;10.90;;;0.90;99.90;;;;;;5092018;28;20456;-72
2022/04/01 02:14:09;;;;;;;14.82;10.70;;;0.90;99.90;;;;;;5092073;28;20482;-72
2022/04/01 02:16:35;;;;;;;16.20;10.40;;;0.90;99.90;;;;;;5092052;28;20032;-71
2022/04/01 02:19:00;;;;;;;15.75;10.75;;;0.90;99.90;;;;;;5093189;28;20036;-71
2022/04/01 02:21:27;;;;;;;15.32;10.00;;;0.80;99.90;;;;;;5091876;28;20031;-72
2022/04/01 02:23:52;;;;;;;16.80;9.88;;;0.90;99.90;;;;;;5075140;28;20067;-71
2022/04/01 02:26:18;;;;;;;15.05;10.48;;;0.90;99.90;;;;;;5093084;28;20502;-71
2022/04/01 02:28:44;;;;;;;16.27;9.98;;;0.80;99.90;;;;;;5093053;28;20040;-71
2022/04/01 02:31:12;;;;;;;14.30;10.25;;;0.80;99.90;;;;;;5093040;28;20375;-72
2022/04/01 02:33:37;;;;;;;12.18;9.60;;;0.80;99.90;;;;;;5091685;28;20497;-72
2022/04/01 02:36:06;;;;;;;13.48;9.13;;;0.80;99.90;;;;;;5074991;28;20020;-72
2022/04/01 02:38:32;;;;;;;18.27;10.73;;;0.80;99.90;;;;;;5093286;28;20103;-72
2022/04/01 02:40:58;;;;;;;14.05;9.95;;;0.80;99.90;;;;;;5091730;28;20031;-72
2022/04/01 02:43:25;;;;;;;12.50;10.07;;;0.80;99.90;;;;;;5108462;28;20035;-72
2022/04/01 02:45:50;;;;;;;14.48;10.10;;;0.80;99.90;;;;;;5092995;28;20035;-72
2022/04/01 02:48:18;;;;;;;12.60;9.43;;;0.70;99.90;;;;;;5093225;28;20025;-72
2022/04/01 02:50:44;;;;;;;15.15;10.48;;;0.70;99.90;;;;;;5095468;28;20020;-71
2022/04/01 02:53:11;;;;;;;14.43;10.35;;;0.70;99.90;;;;;;5095536;28;20440;-71
2022/04/01 02:55:38;;;;;;;13.82;9.40;;;0.70;99.90;;;;;;5095435;28;20386;-72
2022/04/01 02:58:06;;;;;;;14.63;10.07;;;0.70;99.90;;;;;;5112283;28;20024;-71
2022/04/01 03:00:33;;;;;;;13.65;10.32;;;0.70;99.90;;;;;;5096575;28;20020;-72
2022/04/01 03:02:58;;;;;;;15.43;10.10;;;0.70;99.90;;;;;;5096268;28;20040;-71
2022/04/01 03:05:24;;;;;;;16.40;10.13;;;0.70;99.90;;;;;;5095184;28;20484;-72
2022/04/01 03:07:50;;;;;;;14.77;10.82;;;0.70;99.90;;;;;;5095188;28;20032;-72
2022/04/01 03:10:15;;;;;;;14.23;9.45;;;0.70;99.90;;;;;;5096439;28;20067;-72
2022/04/01 03:12:41;;;;;;;14.95;9.98;;;0.70;99.90;;;;;;5112093;28;20024;-73
2022/04/01 03:15:07;;;;;;;12.93;9.75;;;0.70;99.90;;;;;;5111991;28;20020;-72
2022/04/01 03:17:33;;;;;;;14.38;10.50;;;0.70;99.90;;;;;;5095163;28;20505;-72
2022/04/01 03:20:01;;;;;;;16.10;10.55;;;0.60;99.90;;;;;;5095158;28;20039;-72
2022/04/01 03:22:26;;;;;;;16.88;10.10;;;0.60;99.90;;;;;;5094902;28;20078;-73
2022/04/01 03:24:52;;;;;;;13.15;9.57;;;0.60;99.90;;;;;;5094991;28;20028;-73
2022/04/01 03:27:17;;;;;;;13.73;9.27;;;0.70;99.90;;;;;;5096085;28;20537;-73
2022/04/01 03:29:43;;;;;;;12.00;8.45;;;0.60;99.90;;;;;;5095040;28;20086;-73
2022/04/01 03:32:10;;;;;;;12.70;9.85;;;0.70;99.90;;;;;;5095939;28;20404;-73
2022/04/01 03:34:36;;;;;;;13.02;9.13;;;0.60;99.90;;;;;;5096046;28;20447;-72
2022/04/01 03:37:05;;;;;;;11.95;8.45;;;0.60;99.90;;;;;;5096186;28;20020;-74
2022/04/01 03:39:32;;;;;;;12.30;9.63;;;0.70;99.90;;;;;;5096136;28;20032;-72
2022/04/01 03:41:58;;;;;;;11.77;8.50;;;0.60;99.90;;;;;;5095014;28;20486;-72
2022/04/01 03:44:25;;;;;;;11.75;8.60;;;0.60;99.90;;;;;;5096171;28;20486;-73
2022/04/01 03:47:01;;;;;;;10.50;7.43;;;0.60;99.90;;;;;;5094799;28;20020;-73
2022/04/01 03:49:31;;;;;;;13.35;8.80;;;0.60;99.90;;;;;;5095873;28;20012;-74
2022/04/01 03:51:59;;;;;;;9.93;7.57;;;0.60;99.90;;;;;;5095963;28;20431;-73
2022/04/01 03:54:25;;;;;;;9.48;6.70;;;0.60;99.90;;;;;;5094767;28;20053;-74
2022/04/01 03:56:58;;;;;;;11.07;8.45;;;0.60;99.90;;;;;;5095229;28;20508;-73
2022/04/01 03:59:26;;;;;;;10.35;7.53;;;0.60;99.90;;;;;;5095792;28;20031;-73
2022/04/01 04:01:53;;;;;;;11.20;8.23;;;0.60;99.90;;;;;;5095833;28;20117;-74
2022/04/01 04:04:20;;;;;;;11.75;8.38;;;0.60;99.90;;;;;;5096019;28;20024;-74
2022/04/01 04:06:47;;;;;;;10.35;7.57;;;0.60;99.90;;;;;;5096586;28;20024;-75
2022/04/01 04:09:14;;;;;;;9.45;6.20;;;0.60;99.90;;;;;;5097735;28;20027;-74
2022/04/01 04:11:40;;;;;;;10.77;8.05;;;0.60;99.90;;;;;;5095336;28;20390;-73
2022/04/01 04:14:06;;;;;;;10.15;7.20;;;0.60;99.90;;;;;;5095898;28;20024;-73
2022/04/01 04:16:45;;;;;;;11.70;7.22;;;0.60;99.90;;;;;;5095973;28;20022;-73
2022/04/01 04:19:24;;;;;;;10.65;7.80;;;0.60;99.90;;;;;;5095311;28;20054;-73
2022/04/01 04:22:00;;;;;;;10.57;7.38;;;0.60;99.90;;;;;;5095204;28;20023;-73
2022/04/01 04:24:30;;;;;;;10.70;7.60;;;0.60;99.90;;;;;;5095254;28;20100;-72
2022/04/01 04:27:11;;;;;;;10.10;7.22;;;0.60;99.90;;;;;;5096059;28;20312;-73
2022/04/01 04:29:46;;;;;;;13.57;8.45;;;0.60;99.90;;;;;;5095247;28;20048;-73
2022/04/01 04:32:23;;;;;;;11.02;7.78;;;0.60;99.90;;;;;;5110759;28;20480;-74
2022/04/01 04:34:51;;;;;;;12.57;7.20;;;0.60;99.90;;;;;;5095153;28;20024;-73
2022/04/01 04:37:22;;;;;;;10.50;7.75;;;0.60;99.90;;;;;;5094750;28;20015;-73
2022/04/01 04:39:49;;;;;;;10.70;7.55;;;0.50;99.90;;;;;;5094656;28;20020;-73
2022/04/01 04:42:15;;;;;;;11.48;8.23;;;0.60;99.90;;;;;;5094475;28;20166;-73
2022/04/01 04:44:44;;;;;;;13.25;8.32;;;0.60;99.90;;;;;;5094540;28;20587;-73
2022/04/01 04:47:11;;;;;;;11.98;7.68;;;0.60;99.90;;;;;;5093382;28;20020;-73
2022/04/01 04:49:36;;;;;;;11.65;8.27;;;0.60;99.90;;;;;;5094393;28;20024;-72
2022/04/01 04:52:02;;;;;;;11.43;8.02;;;0.60;99.90;;;;;;5110193;28;20032;-73
2022/04/01 04:54:28;;;;;;;12.05;8.15;;;0.60;99.90;;;;;;5094347;28;20020;-73
2022/04/01 04:56:54;;;;;;;11.07;8.15;;;0.60;99.90;;;;;;5094297;28;20039;-73
2022/04/01 04:59:21;;;;;;;11.98;8.05;;;0.50;99.90;;;;;;5093152;28;20381;-73
2022/04/01 05:02:05;;;;;;;11.27;7.70;;;0.50;99.90;;;;;;5092691;28;20044;-73
2022/04/01 05:04:59;;;;;;;9.63;6.70;;;0.60;99.90;;;;;;5109830;28;20070;-73
2022/04/01 05:07:53;;;;;;;10.27;7.10;;;0.50;99.90;;;;;;5109728;28;20164;-73
2022/04/01 05:10:23;;;;;;;;;;;0.50;99.90;;;;;;5094402;28;20024;-73
2022/04/01 05:13:15;;;;;;;10.35;7.25;;;0.50;99.90;;;;;;5093460;28;20289;-73
2022/04/01 05:15:41;;;;;;;9.63;6.78;;;0.50;99.90;;;;;;5109483;28;20036;-73
2022/04/01 05:18:12;;;;;;;6.35;4.45;;;0.50;99.90;;;;;;5093811;28;20016;-72
2022/04/01 05:20:44;;;;;;;11.82;7.13;;;0.50;99.90;;;;;;5092920;28;20027;-73
2022/04/01 05:23:15;;;;;;;9.68;6.90;;;0.50;99.90;;;;;;5093903;28;20069;-73
2022/04/01 05:25:45;;;;;;;13.18;7.68;;;0.50;99.90;;;;;;5092708;28;20051;-73
2022/04/01 05:28:34;;;;;;;9.25;6.50;;;0.50;99.90;;;;;;5094044;28;20077;-73
2022/04/01 05:31:20;;;;;;;10.45;7.13;;;0.50;99.90;;;;;;5094071;28;20489;-73
2022/04/01 05:33:57;;;;;;;9.25;6.25;;;0.50;99.90;;;;;;5094175;28;20103;-73
2022/04/01 05:36:23;;;;;;;12.73;7.57;;;0.50;99.90;;;;;;5094160;28;20082;-72
2022/04/01 05:38:49;;;;;;;10.57;6.68;;;0.40;99.90;;;;;;5092350;28;20478;-73
2022/04/01 05:41:19;;;;;;;9.75;6.05;;;0.40;99.90;;;;;;5109220;28;20035;-73
2022/04/01 05:43:47;;;;;;;8.77;6.13;;;0.50;99.90;;;;;;5092414;28;20035;-73
2022/04/01 05:46:15;;;;;;;11.02;6.47;;;0.40;99.90;;;;;;5092477;28;20024;-73
2022/04/01 05:48:42;;;;;;;9.20;6.05;;;0.40;99.90;;;;;;5109261;28;20035;-73
2022/04/01 05:51:13;;;;;;;11.38;6.70;;;0.50;99.90;;;;;;5092748;28;20477;-73
2022/04/01 05:53:39;;;;;;;8.73;6.80;;;0.40;99.90;;;;;;5092752;28;20428;-73
2022/04/01 05:56:07;;;;;;;9.73;6.57;;;0.50;99.90;;;;;;5109694;28;20024;-73
2022/04/01 05:58:33;;;;;;;11.00;6.15;;;0.40;99.90;;;;;;5093971;28;20115;-72
2022/04/01 06:01:23;;;;;;;9.23;6.57;;;0.40;99.90;;;;;;5092816;28;20113;-73
2022/04/01 06:04:21;;;;;;;7.45;4.55;;;0.50;99.90;;;;;;5093988;28;20543;-73
2022/04/01 06:06:49;;;;;;;11.70;6.93;;;0.40;99.90;;;;;;5093654;28;20028;-73
2022/04/01 06:09:31;;;;;;;10.38;6.75;;;0.40;99.90;;;;;;5092602;28;20371;-73
2022/04/01 06:12:36;;;;;;;11.32;5.75;;;0.50;99.90;;;;;;5092599;28;20023;-74
2022/04/01 06:15:16;;;;;;;10.23;6.45;;;0.50;99.90;;;;;;5093749;28;20025;-73
2022/04/01 06:18:10;;;;;;;10.95;7.63;;;0.50;99.90;;;;;;5094369;28;20017;-74
2022/04/01 06:20:40;;;;;;;10.80;6.97;;;0.50;99.90;;;;;;5095588;28;20024;-73
2022/04/01 06:23:10;;;;;;;9.35;6.22;;;0.50;99.90;;;;;;5095146;28;20031;-72
2022/04/01 06:25:43;;;;;;;12.23;7.00;;;0.50;99.90;;;;;;5099645;28;20486;-73
2022/04/01 06:28:24;;;;;;;12.40;7.80;;;0.50;99.90;;;;;;5099844;28;20024;-73
2022/04/01 06:30:52;;;;;;;9.52;5.53;;;0.60;99.90;;;;;;5115740;28;20129;-73
2022/04/01 06:33:31;;;;;;;9.68;7.13;;;0.50;99.90;;;;;;5100633;28;20063;-74
2022/04/01 06:36:00;;;;;;;8.93;5.68;;;0.60;99.90;;;;;;5103726;28;20024;-74
2022/04/01 06:38:54;;;;;;;9.60;6.55;;;0.50;99.90;;;;;;5103400;28;20020;-73
2022/04/01 06:41:23;;;;;;;9.68;6.57;;;0.50;99.90;;;;;;5101666;28;20417;-73
2022/04/01 06:43:49;;;;;;;8.85;5.38;;;0.50;99.90;;;;;;5101552;28;20036;-74
2022/04/01 06:46:15;;;;;;;12.00;7.55;;;0.60;99.90;;;;;;5101922;28;20045;-74
2022/04/01 06:48:41;;;;;;;9.55;6.75;;;0.60;99.90;;;;;;5101926;28;20061;-74
2022/04/01 06:51:08;;;;;;;10.63;6.65;;;0.60;99.90;;;;;;5071853;28;20020;-74
2022/04/01 06:53:40;;;;;;;8.82;5.90;;;0.60;99.90;;;;;;5105130;28;20020;-73
2022/04/01 06:56:06;;;;;;;14.52;7.53;;;0.60;99.90;;;;;;5088075;28;20058;-74
2022/04/01 06:58:33;;;;;;;8.95;6.57;;;0.60;99.90;;;;;;5113076;28;20065;-74
2022/04/01 07:00:58;;;;;;;12.20;7.70;;;0.60;99.90;;;;;;5121667;28;20012;-74
2022/04/01 07:03:24;;;;;;;9.75;5.78;;;0.60;99.90;;;;;;5111483;28;20036;-74
2022/04/01 07:05:51;;;;;;;11.43;7.30;;;0.60;99.90;;;;;;5128381;28;20024;-74
2022/04/01 07:08:17;;;;;;;10.63;6.63;;;0.60;99.90;;;;;;5120255;28;20050;-73
2022/04/01 07:10:44;;;;;;;12.25;6.80;;;0.60;99.90;;;;;;5132568;28;20024;-74
2022/04/01 07:13:10;;;;;;;11.32;6.22;;;0.70;99.90;;;;;;5101104;28;20031;-73
2022/04/01 07:15:36;;;;;;;11.00;6.75;;;0.60;99.90;;;;;;5131257;28;20032;-74
2022/04/01 07:18:02;;;;;;;12.55;7.25;;;0.60;99.90;;;;;;5117476;28;20024;-73
2022/04/01 07:20:28;;;;;;;8.18;5.80;;;0.60;99.90;;;;;;5111577;28;20057;-73
2022/04/01 07:22:54;;;;;;;11.80;6.93;;;0.60;99.90;;;;;;5111267;28;20059;-73
2022/04/01 07:25:21;;;;;;;12.05;6.88;;;0.60;99.90;;;;;;5109269;28;20030;-73
2022/04/01 07:27:47;;;;;;;9.50;6.18;;;0.50;99.90;;;;;;5115871;28;20053;-73
2022/04/01 07:30:12;;;;;;;10.38;6.63;;;0.50;99.90;;;;;;5101065;28;20409;-72
2022/04/01 07:32:40;;;;;;;13.93;8.45;;;0.60;99.90;;;;;;5081940;28;20024;-73
2022/04/01 07:35:10;;;;;;;12.55;6.97;;;0.60;99.90;;;;;;5080716;28;20089;-72
2022/04/01 07:37:35;;;;;;;10.93;7.20;;;0.60;99.90;;;;;;5102647;28;20035;-73
2022/04/01 07:40:03;;;;;;;14.88;8.15;;;0.50;99.90;;;;;;5115868;28;20027;-72
2022/04/01 07:42:29;;;;;;;12.07;7.95;;;0.50;99.90;;;;;;5113809;28;20024;-73
2022/04/01 07:44:55;;;;;;;14.18;8.25;;;0.60;99.90;;;;;;5099261;28;20069;-73
2022/04/01 07:47:21;;;;;;;11.68;7.38;;;0.50;99.90;;;;;;5098760;28;20035;-73
2022/04/01 07:49:48;;;;;;;12.07;6.70;;;0.60;99.90;;;;;;5108191;28;20111;-73
2022/04/01 07:52:15;;;;;;;13.60;8.38;;;0.50;99.90;;;;;;5096909;28;20027;-73
2022/04/01 07:54:43;;;;;;;13.18;8.35;;;0.50;99.90;;;;;;5077586;28;20024;-73
2022/04/01 07:57:09;;;;;;;15.57;8.20;;;0.50;99.90;;;;;;5096331;28;20104;-73
2022/04/01 07:59:35;;;;;;;15.50;8.38;;;0.50;99.90;;;;;;5105886;28;20529;-72
2022/04/01 08:02:03;;;;;;;15.50;9.27;;;0.60;99.90;;;;;;5095436;28;20040;-74
2022/04/01 08:04:28;;;;;;;14.10;9.55;;;0.70;99.90;;;;;;5095335;28;20023;-73
2022/04/01 08:06:55;;;;;;;12.20;7.70;;;0.60;99.90;;;;;;5096220;28;20355;-73
2022/04/01 08:09:21;;;;;;;13.38;8.02;;;0.50;99.90;;;;;;5105608;28;20019;-73
2022/04/01 08:11:47;;;;;;;14.48;8.35;;;0.60;99.90;;;;;;5106402;28;20028;-73
2022/04/01 08:14:13;;;;;;;15.05;8.55;;;0.60;99.90;;;;;;5095536;28;20039;-73
2022/04/01 08:16:39;;;;;;;15.60;7.40;;;0.60;99.90;;;;;;5101156;28;20149;-72
2022/04/01 08:19:05;;;;;;;12.23;8.40;;;0.60;99.90;;;;;;5099721;28;20419;-73
2022/04/01 08:21:31;;;;;;;14.75;9.10;;;0.70;99.90;;;;;;5095960;28;20093;-73
2022/04/01 08:23:57;;;;;;;14.60;9.98;;;0.70;99.90;;;;;;5078273;28;20032;-74
2022/04/01 08:26:24;;;;;;;14.23;8.30;;;0.90;99.90;;;;;;5094678;28;20094;-74
2022/04/01 08:28:50;;;;;;;15.05;8.75;;;0.80;99.90;;;;;;5096751;28;20560;-74
2022/04/01 08:31:16;;;;;;;14.30;8.77;;;0.80;99.90;;;;;;5103068;28;20019;-74
2022/04/01 08:33:42;;;;;;;12.55;8.25;;;0.80;99.90;;;;;;5096202;28;20107;-73
2022/04/01 08:36:07;;;;;;;12.18;7.53;;;0.70;99.90;;;;;;5096896;28;20027;-73
2022/04/01 08:38:33;;;;;;;12.35;7.28;;;0.70;99.90;;;;;;5081260;28;20020;-74
2022/04/01 08:40:59;;;;;;;14.43;6.97;;;0.80;99.90;;;;;;5098020;28;20084;-74
2022/04/01 08:43:27;;;;;;;12.38;7.57;;;0.70;99.90;;;;;;5096151;28;20046;-74
2022/04/01 08:45:55;;;;;;;14.38;7.80;;;0.70;99.90;;;;;;5101400;28;20478;-74
2022/04/01 08:48:20;;;;;;;11.85;8.23;;;0.80;99.90;;;;;;5096255;28;20016;-73
2022/04/01 08:50:46;;;;;;;11.07;6.55;;;0.70;99.90;;;;;;5104434;28;20020;-74
2022/04/01 08:53:12;;;;;;;16.45;8.63;;;0.70;99.90;;;;;;5108035;28;20068;-74
2022/04/01 08:55:38;;;;;;;10.43;7.20;;;0.60;99.90;;;;;;5115940;28;20027;-75
2022/04/01 08:58:04;;;;;;;11.27;7.28;;;0.70;99.90;;;;;;5107740;28;20054;-75
2022/04/01 09:03:10;;;;;;;11.27;6.53;;;0.70;99.90;;;;;;5074914;27;20482;-76
2022/04/01 09:05:37;;;;;;;11.90;8.25;;;0.60;99.90;;;;;;5041116;28;20024;-76
2022/04/01 09:08:06;;;;;;;11.85;6.93;;;0.70;99.90;;;;;;5071844;28;20045;-74
2022/04/01 09:10:48;;;;;;;16.40;8.13;;;0.70;99.90;;;;;;5069985;28;20055;-74
2022/04/01 09:13:14;;;;;;;13.20;9.05;;;0.60;99.90;;;;;;5071417;28;20021;-74
2022/04/01 09:15:42;;;;;;;9.98;7.35;;;0.50;99.90;;;;;;5068960;28;20091;-74
2022/04/01 09:18:07;;;;;;;13.00;7.55;;;0.50;99.90;;;;;;5034915;28;20048;-74
2022/04/01 09:20:49;;;;;;;10.52;6.43;;;0.50;99.90;;;;;;5050718;28;20025;-74
2022/04/01 09:23:23;;;;;;;14.88;9.07;;;0.50;99.90;;;;;;5057930;28;20048;-73
2022/04/01 09:25:50;;;;;;;15.43;9.27;;;0.50;99.90;;;;;;5072003;28;20402;-75
2022/04/01 09:28:29;;;;;;;12.32;8.63;;;0.60;99.90;;;;;;5073533;28;20558;-75
2022/04/01 09:30:59;;;;;;;15.30;8.45;;;0.60;99.90;;;;;;5052102;28;20028;-73
2022/04/01 09:33:46;;;;;;;15.57;9.02;;;0.60;99.90;;;;;;5042521;28;20508;-75
2022/04/01 09:36:15;;;;;;;19.15;9.63;;;0.70;99.90;;;;;;5047337;28;20025;-74
2022/04/01 09:38:53;;;;;;;14.20;9.63;;;0.60;99.90;;;;;;5037899;28;20021;-74
2022/04/01 09:41:19;;;;;;;13.45;9.60;;;0.60;99.90;;;;;;5075068;28;20051;-75
2022/04/01 09:43:45;;;;;;;18.67;9.95;;;0.60;99.90;;;;;;5074232;28;20021;-74
2022/04/01 09:46:26;;;;;;;17.17;9.52;;;0.60;99.90;;;;;;5073151;28;20013;-74
2022/04/01 09:48:56;;;;;;;14.20;7.53;;;0.60;99.90;;;;;;5074136;28;20111;-74
2022/04/01 09:51:22;;;;;;;17.33;9.68;;;0.60;99.90;;;;;;5057152;28;20030;-74
2022/04/01 09:53:52;;;;;;;17.25;10.10;;;0.70;99.90;;;;;;5056641;28;20029;-73
2022/04/01 09:56:19;;;;;;;13.80;9.13;;;0.70;99.90;;;;;;5051319;28;20030;-74
2022/04/01 09:58:44;;;;;;;24.63;10.18;;;0.70;99.90;;;;;;5057446;28;20036;-74
2022/04/01 10:01:10;;;;;;;13.60;8.80;;;0.70;99.90;;;;;;5070588;28;20045;-73
2022/04/01 10:03:36;;;;;;;13.32;8.75;;;0.70;99.90;;;;;;5069047;28;20032;-73
2022/04/01 10:06:02;;;;;;;16.17;9.88;;;0.70;99.90;;;;;;5069177;28;20471;-74
2022/04/01 10:08:30;;;;;;;18.55;10.63;;;0.70;99.90;;;;;;5067267;28;20459;-74
2022/04/01 10:10:56;;;;;;;14.73;9.82;;;0.80;99.90;;;;;;5049107;28;20021;-74
2022/04/01 10:13:29;;;;;;;15.63;10.48;;;0.70;99.90;;;;;;5051259;28;20028;-74
2022/04/01 10:15:57;;;;;;;17.38;9.05;;;0.80;99.90;;;;;;5057316;28;20052;-74
2022/04/01 10:18:23;;;;;;;18.45;10.90;;;0.80;99.90;;;;;;5032226;28;20033;-75
2022/04/01 10:20:53;;;;;;;16.42;10.85;;;0.90;99.90;;;;;;5046881;28;20502;-74
2022/04/01 10:23:21;;;;;;;12.48;7.63;;;0.90;99.90;;;;;;5054272;28;20069;-74
2022/04/01 10:25:53;;;;;;;16.67;10.32;;;0.90;99.90;;;;;;5039371;28;20049;-74
2022/04/01 10:28:21;;;;;;;17.45;8.60;;;0.80;99.90;;;;;;5032434;28;20025;-74
2022/04/01 10:30:52;;;;;;;18.88;10.23;;;0.80;99.90;;;;;;5035893;28;20025;-73
2022/04/01 10:33:23;;;;;;;16.67;10.55;;;0.90;99.90;;;;;;5036126;28;20021;-74
2022/04/01 10:35:49;;;;;;;16.88;10.73;;;0.90;99.90;;;;;;5034813;28;20052;-74
2022/04/01 10:38:18;;;;;;;17.92;9.40;;;0.90;99.90;;;;;;5037035;28;20056;-74
2022/04/01 10:40:49;;;;;;;17.02;10.60;;;0.90;99.90;;;;;;5018147;28;20033;-74
2022/04/01 10:43:22;;;;;;;13.40;9.20;;;1.00;99.90;;;;;;5038478;28;20025;-74
2022/04/01 10:46:10;;;;;;;18.65;10.25;;;1.00;99.90;;;;;;5038545;28;20017;-74
2022/04/01 10:51:44;;;;;;;16.30;9.75;;;1.10;99.90;;;;;;5045059;28;20160;-74
2022/04/01 10:54:16;;;;;;;18.45;11.07;;;1.20;99.90;;;;;;5028760;28;20040;-74
2022/04/01 10:56:54;;;;;;;15.05;8.88;;;1.20;99.90;;;;;;5036358;28;20028;-74
2022/04/01 10:59:25;;;;;;;14.50;9.60;;;1.10;99.90;;;;;;5035784;28;20037;-74
2022/04/01 11:04:31;;;;;;;14.27;7.50;;;1.10;99.90;;;;;;5066311;28;20388;-77
2022/04/01 11:07:14;;;;;;;14.60;8.73;;;1.10;99.90;;;;;;5089254;28;20020;-78
2022/04/01 11:09:46;;;;;;;15.48;9.95;;;1.20;99.90;;;;;;5081092;28;20025;-77
2022/04/01 11:20:27;;;;;;;15.77;9.57;;;1.20;99.90;;;;;;5112317;27;20412;-75
2022/04/01 11:28:14;;;;;;;18.67;10.57;;;1.20;99.90;;;;;;5152256;27;20421;-73
2022/04/01 11:33:20;;;;;;;16.55;10.43;;;1.20;99.90;;;;;;5158697;27;20382;-74
2022/04/01 11:35:49;;;;;;;15.80;8.50;;;1.20;99.90;;;;;;5137694;27;20031;-74
2022/04/01 11:38:18;;;;;;;19.63;9.77;;;1.20;99.90;;;;;;5150119;27;20067;-74
2022/04/01 11:40:46;;;;;;;14.80;7.97;;;1.30;99.90;;;;;;5134058;27;20026;-74
2022/04/01 11:43:14;;;;;;;15.05;9.20;;;1.40;99.90;;;;;;5152924;27;20027;-73
2022/04/01 11:45:46;;;;;;;16.42;9.20;;;1.30;99.90;;;;;;5133330;27;20019;-73
2022/04/01 11:48:17;;;;;;;17.70;10.50;;;1.30;99.90;;;;;;5150227;27;20015;-74
2022/04/01 11:50:45;;;;;;;12.45;8.32;;;1.20;99.90;;;;;;5135765;27;20015;-73
2022/04/01 11:53:23;;;;;;;16.23;8.18;;;2.00;99.90;;;;;;5108678;27;20043;-73
2022/04/01 11:55:48;;;;;;;14.50;9.35;;;1.10;99.90;;;;;;5124454;27;20020;-73
2022/04/01 11:58:14;;;;;;;15.35;9.60;;;1.60;99.90;;;;;;5127792;27;20015;-73
2022/04/01 12:00:41;;;;;;;12.93;8.23;;;1.30;99.90;;;;;;5152902;27;20053;-73
2022/04/01 12:03:09;;;;;;;14.80;9.32;;;1.30;99.90;;;;;;5133499;27;20042;-73
2022/04/01 12:05:35;;;;;;;17.40;10.23;;;1.40;99.90;;;;;;5136026;27;20102;-73
2022/04/01 12:10:52;;;;;;;15.48;8.38;;;1.20;99.90;;;;;;5151110;27;20476;-74
2022/04/01 12:13:18;;;;;;;10.20;7.00;;;1.20;99.90;;;;;;5120338;28;20031;-73
2022/04/01 12:15:46;;;;;;;15.32;8.98;;;1.20;99.90;;;;;;5147581;27;20030;-73
2022/04/01 12:18:15;;;;;;;14.25;7.57;;;1.30;99.90;;;;;;5130526;28;20473;-73
2022/04/01 12:20:44;;;;;;;17.25;9.68;;;1.20;99.90;;;;;;5114057;28;20015;-72
2022/04/01 12:23:10;;;;;;;19.85;9.38;;;1.30;99.90;;;;;;5146845;27;20494;-73
2022/04/01 12:25:38;;;;;;;14.30;8.57;;;1.50;99.90;;;;;;5134993;27;20114;-72
2022/04/01 12:28:13;;;;;;;13.77;7.82;;;1.40;99.90;;;;;;5120791;27;20024;-73
2022/04/01 12:30:44;;;;;;;16.45;9.13;;;1.50;99.90;;;;;;5141310;27;20102;-72
2022/04/01 12:33:17;;;;;;;18.02;9.77;;;1.40;99.90;;;;;;5115671;28;20044;-73
2022/04/01 12:35:54;;;;;;;16.13;9.88;;;1.40;99.90;;;;;;5137175;28;20080;-74
2022/04/01 12:38:20;;;;;;;13.30;8.68;;;1.30;99.90;;;;;;5135873;28;20080;-74
2022/04/01 12:40:49;;;;;;;16.45;9.98;;;1.30;99.90;;;;;;5115269;28;20362;-74
2022/04/01 12:46:21;;;;;;;14.10;9.32;;;1.40;99.90;;;;;;5131488;27;20391;-78
2022/04/01 12:48:50;;;;;;;17.13;9.63;;;1.40;99.90;;;;;;5129738;28;20031;-78
2022/04/01 12:51:21;;;;;;;17.77;8.77;;;1.40;99.90;;;;;;5108593;28;20426;-77
2022/04/01 12:54:08;;;;;;;20.63;10.43;;;1.30;99.90;;;;;;5076190;28;20059;-77
2022/04/01 12:56:36;;;;;;;17.38;8.45;;;1.40;99.90;;;;;;5107971;28;20126;-77
2022/04/01 12:59:06;;;;;;;21.20;10.18;;;1.40;99.90;;;;;;5120915;28;20060;-78
2022/04/01 13:01:34;;;;;;;19.20;9.85;;;1.50;99.90;;;;;;5130261;28;20106;-76
2022/04/01 13:04:00;;;;;;;18.77;10.23;;;1.50;99.90;;;;;;5129307;28;20351;-78
2022/04/01 13:06:27;;;;;;;17.45;10.18;;;1.50;99.90;;;;;;5082956;28;20020;-77
2022/04/01 13:09:10;;;;;;;14.68;9.30;;;1.60;99.90;;;;;;5112378;28;20529;-77
2022/04/01 13:11:40;;;;;;;14.25;8.93;;;1.50;99.90;;;;;;5128281;28;20018;-78
2022/04/01 13:14:17;;;;;;;16.85;9.27;;;1.60;99.90;;;;;;5130819;28;20020;-77
2022/04/01 13:16:43;;;;;;;16.85;10.85;;;1.50;99.90;;;;;;5106814;28;20020;-77
2022/04/01 13:22:07;;;;;;;16.70;9.55;;;1.50;99.90;;;;;;5091909;28;20707;-74
2022/04/01 13:24:37;;;;;;;17.95;9.45;;;1.50;99.90;;;;;;5092305;28;20112;-73
2022/04/01 13:27:03;;;;;;;22.02;10.23;;;1.60;99.90;;;;;;5101185;28;20429;-74
2022/04/01 13:29:29;;;;;;;13.70;9.00;;;1.60;99.90;;;;;;5100924;28;20028;-74
2022/04/01 13:31:55;;;;;;;17.20;9.02;;;1.50;99.90;;;;;;5091786;28;20081;-73